sensor_id;sensor_type;location;lat;lon;timestamp;pressure;altitude;pressure_sealevel;temperature;humidity
75359;BME280;64046;51.978;5.934;2022-12-18T00:01:37;102782.84;;;2.81;70.78
75359;BME280;64046;51.978;5.934;2022-12-18T00:04:11;102775.91;;;2.80;70.60
75359;BME280;64046;51.978;5.934;2022-12-18T00:06:47;102767.34;;;2.83;70.33
75359;BME280;64046;51.978;5.934;2022-12-18T00:09:17;102766.22;;;2.70;70.37
75359;BME280;64046;51.978;5.934;2022-12-18T00:11:46;102763.59;;;2.68;69.97
75359;BME280;64046;51.978;5.934;2022-12-18T00:14:16;102752.44;;;2.71;69.99
75359;BME280;64046;51.978;5.934;2022-12-18T00:16:46;102765.28;;;2.66;69.68
75359;BME280;64046;51.978;5.934;2022-12-18T00:19:15;102771.09;;;2.56;69.69
75359;BME280;64046;51.978;5.934;2022-12-18T00:21:47;102765.41;;;2.72;69.56
75359;BME280;64046;51.978;5.934;2022-12-18T00:24:16;102772.03;;;2.58;69.24
75359;BME280;64046;51.978;5.934;2022-12-18T00:26:45;102764.28;;;2.58;69.16
75359;BME280;64046;51.978;5.934;2022-12-18T00:29:14;102767.66;;;2.55;69.05
75359;BME280;64046;51.978;5.934;2022-12-18T00:31:43;102763.25;;;2.51;68.91
75359;BME280;64046;51.978;5.934;2022-12-18T00:34:13;102758.03;;;2.48;68.91
75359;BME280;64046;51.978;5.934;2022-12-18T00:36:42;102752.88;;;2.50;68.77
75359;BME280;64046;51.978;5.934;2022-12-18T00:39:14;102742.81;;;2.64;68.53
75359;BME280;64046;51.978;5.934;2022-12-18T00:41:44;102750.28;;;2.50;68.53
75359;BME280;64046;51.978;5.934;2022-12-18T00:44:26;102752.81;;;2.47;68.28
75359;BME280;64046;51.978;5.934;2022-12-18T00:46:55;102753.63;;;2.44;68.37
75359;BME280;64046;51.978;5.934;2022-12-18T00:49:25;102758.63;;;2.36;68.61
75359;BME280;64046;51.978;5.934;2022-12-18T00:51:54;102756.81;;;2.31;68.64
75359;BME280;64046;51.978;5.934;2022-12-18T00:54:26;102759.59;;;2.41;68.39
75359;BME280;64046;51.978;5.934;2022-12-18T00:56:56;102768.59;;;2.18;68.78
75359;BME280;64046;51.978;5.934;2022-12-18T00:59:25;102766.88;;;2.18;68.58
75359;BME280;64046;51.978;5.934;2022-12-18T01:01:56;102764.28;;;2.18;68.36
75359;BME280;64046;51.978;5.934;2022-12-18T01:04:25;102767.88;;;2.25;68.23
75359;BME280;64046;51.978;5.934;2022-12-18T01:06:54;102764.38;;;2.23;68.01
75359;BME280;64046;51.978;5.934;2022-12-18T01:09:26;102775.88;;;2.36;67.66
75359;BME280;64046;51.978;5.934;2022-12-18T01:11:55;102772.91;;;2.19;67.77
75359;BME280;64046;51.978;5.934;2022-12-18T01:14:24;102759.16;;;2.20;67.84
75359;BME280;64046;51.978;5.934;2022-12-18T01:16:53;102748.03;;;2.24;67.33
75359;BME280;64046;51.978;5.934;2022-12-18T01:19:23;102748.09;;;2.27;67.07
75359;BME280;64046;51.978;5.934;2022-12-18T01:21:54;102750.69;;;2.27;66.87
75359;BME280;64046;51.978;5.934;2022-12-18T01:24:26;102742.28;;;2.39;66.76
75359;BME280;64046;51.978;5.934;2022-12-18T01:26:57;102740.28;;;2.24;66.76
75359;BME280;64046;51.978;5.934;2022-12-18T01:29:26;102743.66;;;2.21;66.57
75359;BME280;64046;51.978;5.934;2022-12-18T01:31:56;102748.88;;;2.24;66.60
75359;BME280;64046;51.978;5.934;2022-12-18T01:34:25;102746.13;;;2.15;66.71
75359;BME280;64046;51.978;5.934;2022-12-18T01:36:54;102742.28;;;1.98;66.69
75359;BME280;64046;51.978;5.934;2022-12-18T01:39:26;102756.19;;;2.03;67.37
75359;BME280;64046;51.978;5.934;2022-12-18T01:41:57;102758.44;;;1.89;67.38
75359;BME280;64046;51.978;5.934;2022-12-18T01:44:54;102761.63;;;2.15;66.81
75359;BME280;64046;51.978;5.934;2022-12-18T01:47:27;102763.06;;;2.02;67.09
75359;BME280;64046;51.978;5.934;2022-12-18T01:50:00;102762.31;;;2.06;66.95
75359;BME280;64046;51.978;5.934;2022-12-18T01:52:31;102767.31;;;2.00;67.03
75359;BME280;64046;51.978;5.934;2022-12-18T01:55:05;102757.94;;;2.04;66.81
75359;BME280;64046;51.978;5.934;2022-12-18T01:57:36;102755.06;;;1.92;67.05
75359;BME280;64046;51.978;5.934;2022-12-18T02:00:09;102749.13;;;1.96;67.02
75359;BME280;64046;51.978;5.934;2022-12-18T02:02:42;102748.09;;;1.89;66.90
75359;BME280;64046;51.978;5.934;2022-12-18T02:05:15;102756.66;;;1.85;67.11
75359;BME280;64046;51.978;5.934;2022-12-18T02:07:56;102765.50;;;1.96;66.61
75359;BME280;64046;51.978;5.934;2022-12-18T02:10:39;102764.72;;;2.00;66.47
75359;BME280;64046;51.978;5.934;2022-12-18T02:13:17;102771.50;;;1.94;66.47
75359;BME280;64046;51.978;5.934;2022-12-18T02:15:56;102765.50;;;1.96;66.16
75359;BME280;64046;51.978;5.934;2022-12-18T02:18:31;102761.16;;;1.94;66.08
75359;BME280;64046;51.978;5.934;2022-12-18T02:21:09;102767.31;;;2.00;65.87
75359;BME280;64046;51.978;5.934;2022-12-18T02:23:48;102758.72;;;2.01;65.66
75359;BME280;64046;51.978;5.934;2022-12-18T02:26:28;102756.97;;;2.00;65.69
75359;BME280;64046;51.978;5.934;2022-12-18T02:29:01;102751.72;;;1.96;65.64
75359;BME280;64046;51.978;5.934;2022-12-18T02:31:39;102755.34;;;2.04;65.37
75359;BME280;64046;51.978;5.934;2022-12-18T02:34:09;102750.88;;;1.97;65.29
75359;BME280;64046;51.978;5.934;2022-12-18T02:36:42;102757.03;;;2.03;65.22
75359;BME280;64046;51.978;5.934;2022-12-18T02:39:13;102759.44;;;1.94;65.12
75359;BME280;64046;51.978;5.934;2022-12-18T02:41:59;102766.28;;;1.92;65.35
75359;BME280;64046;51.978;5.934;2022-12-18T02:44:34;102761.47;;;1.71;65.62
75359;BME280;64046;51.978;5.934;2022-12-18T02:47:04;102752.72;;;1.66;65.74
75359;BME280;64046;51.978;5.934;2022-12-18T02:49:40;102761.66;;;1.79;65.60
75359;BME280;64046;51.978;5.934;2022-12-18T02:52:20;102750.50;;;1.81;65.40
75359;BME280;64046;51.978;5.934;2022-12-18T02:54:59;102747.81;;;1.75;65.57
75359;BME280;64046;51.978;5.934;2022-12-18T02:57:40;102749.66;;;1.81;65.56
75359;BME280;64046;51.978;5.934;2022-12-18T03:00:14;102749.53;;;1.76;65.66
75359;BME280;64046;51.978;5.934;2022-12-18T03:02:48;102756.53;;;1.82;65.43
75359;BME280;64046;51.978;5.934;2022-12-18T03:05:23;102749.75;;;1.85;65.09
75359;BME280;64046;51.978;5.934;2022-12-18T03:07:57;102747.31;;;1.92;64.80
75359;BME280;64046;51.978;5.934;2022-12-18T03:10:32;102748.06;;;1.87;64.72
75359;BME280;64046;51.978;5.934;2022-12-18T03:13:07;102750.72;;;1.90;64.57
75359;BME280;64046;51.978;5.934;2022-12-18T03:15:40;102741.19;;;1.88;64.56
75359;BME280;64046;51.978;5.934;2022-12-18T03:18:15;102736.91;;;1.88;64.61
75359;BME280;64046;51.978;5.934;2022-12-18T03:20:47;102736.03;;;1.88;64.08
75359;BME280;64046;51.978;5.934;2022-12-18T03:23:22;102734.34;;;1.90;64.08
75359;BME280;64046;51.978;5.934;2022-12-18T03:25:56;102734.44;;;1.95;63.95
75359;BME280;64046;51.978;5.934;2022-12-18T03:28:31;102739.63;;;1.95;64.17
75359;BME280;64046;51.978;5.934;2022-12-18T03:31:05;102727.44;;;1.90;63.98
75359;BME280;64046;51.978;5.934;2022-12-18T03:33:39;102727.59;;;1.97;63.76
75359;BME280;64046;51.978;5.934;2022-12-18T03:36:10;102723.84;;;1.82;63.75
75359;BME280;64046;51.978;5.934;2022-12-18T03:38:40;102718.53;;;1.78;63.96
75359;BME280;64046;51.978;5.934;2022-12-18T03:41:17;102713.69;;;1.92;63.85
75359;BME280;64046;51.978;5.934;2022-12-18T03:44:12;102715.44;;;1.93;63.84
75359;BME280;64046;51.978;5.934;2022-12-18T03:46:50;102708.41;;;1.85;63.65
75359;BME280;64046;51.978;5.934;2022-12-18T03:49:30;102706.63;;;1.84;63.89
75359;BME280;64046;51.978;5.934;2022-12-18T03:52:04;102707.38;;;1.79;63.83
75359;BME280;64046;51.978;5.934;2022-12-18T03:54:35;102696.19;;;1.78;63.85
75359;BME280;64046;51.978;5.934;2022-12-18T03:57:13;102700.44;;;1.78;63.75
75359;BME280;64046;51.978;5.934;2022-12-18T03:59:49;102702.25;;;1.80;63.74
75359;BME280;64046;51.978;5.934;2022-12-18T04:02:24;102701.03;;;1.64;64.14
75359;BME280;64046;51.978;5.934;2022-12-18T04:04:58;102708.97;;;1.72;64.05
75359;BME280;64046;51.978;5.934;2022-12-18T04:07:28;102704.38;;;1.60;64.21
75359;BME280;64046;51.978;5.934;2022-12-18T04:09:59;102709.66;;;1.65;64.15
75359;BME280;64046;51.978;5.934;2022-12-18T04:12:31;102705.97;;;1.55;64.28
75359;BME280;64046;51.978;5.934;2022-12-18T04:15:05;102701.28;;;1.75;63.98
75359;BME280;64046;51.978;5.934;2022-12-18T04:17:34;102706.13;;;1.61;63.89
75359;BME280;64046;51.978;5.934;2022-12-18T04:20:05;102702.03;;;1.71;63.78
75359;BME280;64046;51.978;5.934;2022-12-18T04:22:36;102700.13;;;1.62;63.79
75359;BME280;64046;51.978;5.934;2022-12-18T04:25:05;102689.03;;;1.66;63.83
75359;BME280;64046;51.978;5.934;2022-12-18T04:27:38;102687.25;;;1.64;63.64
75359;BME280;64046;51.978;5.934;2022-12-18T04:30:11;102692.69;;;1.78;63.61
75359;BME280;64046;51.978;5.934;2022-12-18T04:32:41;102680.28;;;1.61;63.63
75359;BME280;64046;51.978;5.934;2022-12-18T04:35:10;102681.09;;;1.60;63.49
75359;BME280;64046;51.978;5.934;2022-12-18T04:37:42;102678.59;;;1.63;63.53
75359;BME280;64046;51.978;5.934;2022-12-18T04:40:12;102684.63;;;1.62;63.55
75359;BME280;64046;51.978;5.934;2022-12-18T04:42:45;102687.84;;;1.52;63.65
75359;BME280;64046;51.978;5.934;2022-12-18T04:45:16;102680.47;;;1.70;63.45
75359;BME280;64046;51.978;5.934;2022-12-18T04:47:46;102676.75;;;1.58;63.40
75359;BME280;64046;51.978;5.934;2022-12-18T04:50:15;102683.66;;;1.59;63.33
75359;BME280;64046;51.978;5.934;2022-12-18T04:52:45;102693.84;;;1.51;63.48
75359;BME280;64046;51.978;5.934;2022-12-18T04:55:14;102693.94;;;1.55;63.51
75359;BME280;64046;51.978;5.934;2022-12-18T04:57:44;102694.97;;;1.62;63.29
75359;BME280;64046;51.978;5.934;2022-12-18T05:00:17;102686.50;;;1.69;63.02
75359;BME280;64046;51.978;5.934;2022-12-18T05:02:46;102691.63;;;1.68;62.83
75359;BME280;64046;51.978;5.934;2022-12-18T05:05:16;102683.06;;;1.70;62.83
75359;BME280;64046;51.978;5.934;2022-12-18T05:07:45;102690.78;;;1.69;62.45
75359;BME280;64046;51.978;5.934;2022-12-18T05:10:14;102687.38;;;1.70;62.51
75359;BME280;64046;51.978;5.934;2022-12-18T05:12:43;102696.06;;;1.73;62.23
75359;BME280;64046;51.978;5.934;2022-12-18T05:15:31;102704.28;;;1.94;62.06
75359;BME280;64046;51.978;5.934;2022-12-18T05:18:01;102709.06;;;1.77;62.24
75359;BME280;64046;51.978;5.934;2022-12-18T05:20:31;102715.94;;;1.76;61.99
75359;BME280;64046;51.978;5.934;2022-12-18T05:23:00;102721.75;;;1.67;62.21
75359;BME280;64046;51.978;5.934;2022-12-18T05:25:29;102722.69;;;1.69;61.99
75359;BME280;64046;51.978;5.934;2022-12-18T05:27:59;102727.00;;;1.70;62.17
75359;BME280;64046;51.978;5.934;2022-12-18T05:30:30;102732.31;;;1.77;62.17
75359;BME280;64046;51.978;5.934;2022-12-18T05:32:59;102737.09;;;1.60;62.32
75359;BME280;64046;51.978;5.934;2022-12-18T05:35:29;102736.34;;;1.64;62.13
75359;BME280;64046;51.978;5.934;2022-12-18T05:37:58;102744.09;;;1.64;62.09
75359;BME280;64046;51.978;5.934;2022-12-18T05:40:27;102751.75;;;1.61;62.21
75359;BME280;64046;51.978;5.934;2022-12-18T05:42:56;102759.59;;;1.64;62.09
75359;BME280;64046;51.978;5.934;2022-12-18T05:45:25;102752.63;;;1.61;61.88
75359;BME280;64046;51.978;5.934;2022-12-18T05:47:57;102755.50;;;1.72;62.11
75359;BME280;64046;51.978;5.934;2022-12-18T05:50:26;102750.63;;;1.49;62.22
75359;BME280;64046;51.978;5.934;2022-12-18T05:53:01;102745.28;;;1.43;62.53
75359;BME280;64046;51.978;5.934;2022-12-18T05:55:33;102738.81;;;1.59;62.77
75359;BME280;64046;51.978;5.934;2022-12-18T05:58:03;102730.00;;;1.51;62.61
75359;BME280;64046;51.978;5.934;2022-12-18T06:00:35;102724.19;;;1.60;62.46
75359;BME280;64046;51.978;5.934;2022-12-18T06:03:09;102718.38;;;1.70;62.01
75359;BME280;64046;51.978;5.934;2022-12-18T06:05:41;102714.84;;;1.65;62.06
75359;BME280;64046;51.978;5.934;2022-12-18T06:08:11;102704.56;;;1.68;61.96
75359;BME280;64046;51.978;5.934;2022-12-18T06:10:41;102699.38;;;1.66;62.02
75359;BME280;64046;51.978;5.934;2022-12-18T06:13:10;102711.31;;;1.63;61.85
75359;BME280;64046;51.978;5.934;2022-12-18T06:15:39;102696.56;;;1.59;61.96
75359;BME280;64046;51.978;5.934;2022-12-18T06:18:11;102688.31;;;1.73;61.99
75359;BME280;64046;51.978;5.934;2022-12-18T06:20:40;102696.56;;;1.59;61.87
75359;BME280;64046;51.978;5.934;2022-12-18T06:23:10;102693.22;;;1.63;62.08
75359;BME280;64046;51.978;5.934;2022-12-18T06:25:39;102696.03;;;1.72;61.86
75359;BME280;64046;51.978;5.934;2022-12-18T06:28:08;102698.63;;;1.72;61.76
75359;BME280;64046;51.978;5.934;2022-12-18T06:30:37;102699.56;;;1.76;61.54
75359;BME280;64046;51.978;5.934;2022-12-18T06:33:07;102685.72;;;1.72;61.46
75359;BME280;64046;51.978;5.934;2022-12-18T06:35:38;102684.31;;;1.86;61.61
75359;BME280;64046;51.978;5.934;2022-12-18T06:38:08;102679.75;;;1.76;61.48
75359;BME280;64046;51.978;5.934;2022-12-18T06:40:38;102673.00;;;1.83;61.62
75359;BME280;64046;51.978;5.934;2022-12-18T06:43:08;102679.84;;;1.79;61.47
75359;BME280;64046;51.978;5.934;2022-12-18T06:45:37;102676.97;;;1.67;61.65
75359;BME280;64046;51.978;5.934;2022-12-18T06:48:06;102678.69;;;1.66;61.80
75359;BME280;64046;51.978;5.934;2022-12-18T06:50:41;102675.72;;;1.89;61.78
75359;BME280;64046;51.978;5.934;2022-12-18T06:53:11;102668.41;;;1.69;61.83
75359;BME280;64046;51.978;5.934;2022-12-18T06:55:40;102664.00;;;1.65;61.84
75359;BME280;64046;51.978;5.934;2022-12-18T06:58:09;102658.03;;;1.66;62.00
75359;BME280;64046;51.978;5.934;2022-12-18T07:00:38;102660.75;;;1.74;61.82
75359;BME280;64046;51.978;5.934;2022-12-18T07:03:07;102655.53;;;1.71;61.84
75359;BME280;64046;51.978;5.934;2022-12-18T07:05:42;102643.09;;;1.94;61.62
75359;BME280;64046;51.978;5.934;2022-12-18T07:08:11;102648.72;;;1.76;61.71
75359;BME280;64046;51.978;5.934;2022-12-18T07:10:41;102644.66;;;1.87;61.64
75359;BME280;64046;51.978;5.934;2022-12-18T07:13:11;102644.44;;;1.75;61.75
75359;BME280;64046;51.978;5.934;2022-12-18T07:15:40;102647.75;;;1.69;61.90
75359;BME280;64046;51.978;5.934;2022-12-18T07:18:09;102643.38;;;1.67;62.07
75359;BME280;64046;51.978;5.934;2022-12-18T07:20:38;102655.41;;;1.65;62.23
75359;BME280;64046;51.978;5.934;2022-12-18T07:23:10;102660.03;;;1.80;62.10
75359;BME280;64046;51.978;5.934;2022-12-18T07:25:39;102659.69;;;1.64;62.25
75359;BME280;64046;51.978;5.934;2022-12-18T07:28:08;102652.88;;;1.68;62.31
75359;BME280;64046;51.978;5.934;2022-12-18T07:30:38;102652.91;;;1.69;62.09
75359;BME280;64046;51.978;5.934;2022-12-18T07:33:07;102642.66;;;1.74;62.18
75359;BME280;64046;51.978;5.934;2022-12-18T07:35:36;102652.28;;;1.80;62.01
75359;BME280;64046;51.978;5.934;2022-12-18T07:38:06;102648.81;;;1.79;61.95
75359;BME280;64046;51.978;5.934;2022-12-18T07:40:37;102643.06;;;1.93;61.97
75359;BME280;64046;51.978;5.934;2022-12-18T07:43:07;102623.81;;;1.78;62.17
75359;BME280;64046;51.978;5.934;2022-12-18T07:45:36;102630.72;;;1.79;61.94
75359;BME280;64046;51.978;5.934;2022-12-18T07:48:05;102628.97;;;1.78;62.31
75359;BME280;64046;51.978;5.934;2022-12-18T07:50:34;102619.50;;;1.79;62.22
75359;BME280;64046;51.978;5.934;2022-12-18T07:53:03;102608.34;;;1.80;62.53
75359;BME280;64046;51.978;5.934;2022-12-18T07:55:33;102599.84;;;1.85;62.27
75359;BME280;64046;51.978;5.934;2022-12-18T07:58:04;102597.72;;;2.08;62.31
75359;BME280;64046;51.978;5.934;2022-12-18T08:00:34;102601.06;;;2.04;61.99
75359;BME280;64046;51.978;5.934;2022-12-18T08:03:03;102599.38;;;2.05;61.79
75359;BME280;64046;51.978;5.934;2022-12-18T08:05:32;102606.31;;;2.07;61.70
75359;BME280;64046;51.978;5.934;2022-12-18T08:08:01;102600.25;;;2.05;61.91
75359;BME280;64046;51.978;5.934;2022-12-18T08:10:31;102599.47;;;2.10;61.92
75359;BME280;64046;51.978;5.934;2022-12-18T08:13:00;102596.94;;;2.13;62.02
75359;BME280;64046;51.978;5.934;2022-12-18T08:15:32;102588.69;;;2.32;61.79
75359;BME280;64046;51.978;5.934;2022-12-18T08:18:01;102586.66;;;2.17;61.61
75359;BME280;64046;51.978;5.934;2022-12-18T08:20:30;102582.38;;;2.18;62.05
75359;BME280;64046;51.978;5.934;2022-12-18T08:22:59;102584.25;;;2.25;61.91
75359;BME280;64046;51.978;5.934;2022-12-18T08:25:28;102588.66;;;2.31;61.89
75359;BME280;64046;51.978;5.934;2022-12-18T08:27:58;102592.19;;;2.36;61.68
75359;BME280;64046;51.978;5.934;2022-12-18T08:30:27;102586.22;;;2.40;61.56
75359;BME280;64046;51.978;5.934;2022-12-18T08:32:58;102583.13;;;2.58;61.80
75359;BME280;64046;51.978;5.934;2022-12-18T08:35:28;102580.31;;;2.47;61.64
75359;BME280;64046;51.978;5.934;2022-12-18T08:37:57;102575.13;;;2.46;61.57
75359;BME280;64046;51.978;5.934;2022-12-18T08:40:26;102578.72;;;2.54;61.48
75359;BME280;64046;51.978;5.934;2022-12-18T08:42:55;102578.72;;;2.54;61.52
75359;BME280;64046;51.978;5.934;2022-12-18T08:45:37;102590.06;;;2.62;61.55
75359;BME280;64046;51.978;5.934;2022-12-18T08:48:09;102598.25;;;2.85;61.08
75359;BME280;64046;51.978;5.934;2022-12-18T08:50:38;102591.13;;;2.75;61.01
75359;BME280;64046;51.978;5.934;2022-12-18T08:53:07;102589.47;;;2.77;61.12
75359;BME280;64046;51.978;5.934;2022-12-18T08:55:36;102588.63;;;2.78;61.26
75359;BME280;64046;51.978;5.934;2022-12-18T08:58:05;102593.72;;;2.75;61.26
75359;BME280;64046;51.978;5.934;2022-12-18T09:00:35;102586.97;;;2.83;61.17
75359;BME280;64046;51.978;5.934;2022-12-18T09:03:04;102587.00;;;2.85;61.15
75359;BME280;64046;51.978;5.934;2022-12-18T09:05:36;102581.28;;;3.04;61.11
75359;BME280;64046;51.978;5.934;2022-12-18T09:08:05;102585.50;;;2.99;61.12
75359;BME280;64046;51.978;5.934;2022-12-18T09:10:41;102592.03;;;3.32;60.39
75359;BME280;64046;51.978;5.934;2022-12-18T09:13:11;102585.94;;;3.27;60.65
75359;BME280;64046;51.978;5.934;2022-12-18T09:15:41;102591.13;;;3.27;60.54
75359;BME280;64046;51.978;5.934;2022-12-18T09:18:11;102584.28;;;3.34;60.45
75359;BME280;64046;51.978;5.934;2022-12-18T09:20:43;102588.00;;;3.51;60.36
75359;BME280;64046;51.978;5.934;2022-12-18T09:23:13;102580.91;;;3.39;60.25
75359;BME280;64046;51.978;5.934;2022-12-18T09:25:42;102582.72;;;3.45;60.27
75359;BME280;64046;51.978;5.934;2022-12-18T09:28:16;102571.88;;;3.75;60.06
75359;BME280;64046;51.978;5.934;2022-12-18T09:30:47;102569.22;;;3.69;60.06
75359;BME280;64046;51.978;5.934;2022-12-18T09:33:17;102580.31;;;3.59;60.11
75359;BME280;64046;51.978;5.934;2022-12-18T09:35:49;102579.66;;;3.75;60.08
75359;BME280;64046;51.978;5.934;2022-12-18T09:38:19;102570.13;;;3.73;60.06
75359;BME280;64046;51.978;5.934;2022-12-18T09:40:51;102565.03;;;3.79;59.71
75359;BME280;64046;51.978;5.934;2022-12-18T09:43:26;102569.38;;;3.81;59.55
75359;BME280;64046;51.978;5.934;2022-12-18T09:46:01;102572.03;;;3.86;59.84
75359;BME280;64046;51.978;5.934;2022-12-18T09:48:35;102573.78;;;3.89;59.46
75359;BME280;64046;51.978;5.934;2022-12-18T09:51:13;102561.78;;;3.97;59.11
75359;BME280;64046;51.978;5.934;2022-12-18T09:53:47;102568.78;;;4.03;59.25
75359;BME280;64046;51.978;5.934;2022-12-18T09:56:20;102563.50;;;3.98;59.15
75359;BME280;64046;51.978;5.934;2022-12-18T09:58:55;102555.06;;;4.16;58.67
75359;BME280;64046;51.978;5.934;2022-12-18T10:01:29;102549.03;;;4.15;58.53
75359;BME280;64046;51.978;5.934;2022-12-18T10:04:00;102554.97;;;4.08;58.73
75359;BME280;64046;51.978;5.934;2022-12-18T10:06:37;102538.78;;;4.31;58.36
75359;BME280;64046;51.978;5.934;2022-12-18T10:09:14;102541.44;;;4.36;58.23
75359;BME280;64046;51.978;5.934;2022-12-18T10:11:50;102537.09;;;4.36;58.29
75359;BME280;64046;51.978;5.934;2022-12-18T10:14:27;102540.63;;;4.43;58.00
75359;BME280;64046;51.978;5.934;2022-12-18T10:17:06;102542.44;;;4.52;57.91
75359;BME280;64046;51.978;5.934;2022-12-18T10:19:46;102534.66;;;4.55;57.92
75359;BME280;64046;51.978;5.934;2022-12-18T10:22:39;102531.31;;;4.68;57.47
75359;BME280;64046;51.978;5.934;2022-12-18T10:25:20;102522.66;;;4.69;57.63
75359;BME280;64046;51.978;5.934;2022-12-18T10:27:55;102516.56;;;4.65;57.65
75359;BME280;64046;51.978;5.934;2022-12-18T10:30:26;102511.31;;;4.55;57.66
75359;BME280;64046;51.978;5.934;2022-12-18T10:33:00;102505.38;;;4.74;57.42
75359;BME280;64046;51.978;5.934;2022-12-18T10:35:29;102504.38;;;4.57;57.58
75359;BME280;64046;51.978;5.934;2022-12-18T10:38:03;102506.28;;;4.78;57.33
75359;BME280;64046;51.978;5.934;2022-12-18T10:40:48;102505.47;;;4.88;57.07
75359;BME280;64046;51.978;5.934;2022-12-18T10:43:21;102497.66;;;4.82;57.47
75359;BME280;64046;51.978;5.934;2022-12-18T10:48:53;102498.66;;;5.02;56.80
75359;BME280;64046;51.978;5.934;2022-12-18T10:51:24;102489.97;;;4.94;56.97
75359;BME280;64046;51.978;5.934;2022-12-18T10:54:00;102481.34;;;5.01;56.97
75359;BME280;64046;51.978;5.934;2022-12-18T10:56:32;102475.25;;;4.99;56.93
75359;BME280;64046;51.978;5.934;2022-12-18T10:59:04;102471.81;;;5.02;56.87
75359;BME280;64046;51.978;5.934;2022-12-18T11:01:46;102465.78;;;5.14;56.29
75359;BME280;64046;51.978;5.934;2022-12-18T11:04:19;102470.06;;;5.01;56.59
75359;BME280;64046;51.978;5.934;2022-12-18T11:06:57;102466.63;;;5.05;56.29
75359;BME280;64046;51.978;5.934;2022-12-18T11:09:30;102467.44;;;4.96;56.57
75359;BME280;64046;51.978;5.934;2022-12-18T11:12:02;102468.28;;;4.89;56.59
75359;BME280;64046;51.978;5.934;2022-12-18T11:14:34;102457.06;;;4.96;56.40
75359;BME280;64046;51.978;5.934;2022-12-18T11:17:19;102451.88;;;5.04;55.70
75359;BME280;64046;51.978;5.934;2022-12-18T11:19:52;102459.66;;;4.99;55.93
75359;BME280;64046;51.978;5.934;2022-12-18T11:22:25;102458.81;;;4.97;55.81
75359;BME280;64046;51.978;5.934;2022-12-18T11:24:59;102441.50;;;5.06;55.57
75359;BME280;64046;51.978;5.934;2022-12-18T11:27:29;102444.06;;;4.93;55.41
75359;BME280;64046;51.978;5.934;2022-12-18T11:30:08;102437.22;;;5.12;55.20
75359;BME280;64046;51.978;5.934;2022-12-18T11:32:39;102426.78;;;5.06;55.07
75359;BME280;64046;51.978;5.934;2022-12-18T11:35:17;102417.31;;;5.17;54.72
75359;BME280;64046;51.978;5.934;2022-12-18T11:37:53;102414.69;;;5.13;54.65
75359;BME280;64046;51.978;5.934;2022-12-18T11:40:33;102407.78;;;5.21;54.72
75359;BME280;64046;51.978;5.934;2022-12-18T11:43:08;102416.47;;;5.22;54.67
75359;BME280;64046;51.978;5.934;2022-12-18T11:45:43;102419.03;;;5.20;54.66
75359;BME280;64046;51.978;5.934;2022-12-18T11:48:18;102419.09;;;5.25;54.59
75359;BME280;64046;51.978;5.934;2022-12-18T11:50:52;102425.13;;;5.19;54.64
75359;BME280;64046;51.978;5.934;2022-12-18T11:53:22;102423.38;;;5.13;54.50
75359;BME280;64046;51.978;5.934;2022-12-18T11:56:02;102413.03;;;5.29;54.28
75359;BME280;64046;51.978;5.934;2022-12-18T11:58:45;102412.19;;;5.34;53.99
75359;BME280;64046;51.978;5.934;2022-12-18T12:01:35;102394.00;;;5.37;53.75
75359;BME280;64046;51.978;5.934;2022-12-18T12:04:35;102398.31;;;5.35;53.79
75359;BME280;64046;51.978;5.934;2022-12-18T12:07:21;102399.16;;;5.30;53.62
75359;BME280;64046;51.978;5.934;2022-12-18T12:10:03;102386.16;;;5.33;53.51
75359;BME280;64046;51.978;5.934;2022-12-18T12:12:52;102369.75;;;5.43;53.51
75359;BME280;64046;51.978;5.934;2022-12-18T12:15:30;102374.06;;;5.33;53.45
75359;BME280;64046;51.978;5.934;2022-12-18T12:18:11;102372.31;;;5.32;53.54
75359;BME280;64046;51.978;5.934;2022-12-18T12:20:49;102366.25;;;5.32;53.19
75359;BME280;64046;51.978;5.934;2022-12-18T12:23:26;102357.56;;;5.24;53.08
75359;BME280;64046;51.978;5.934;2022-12-18T12:26:01;102362.75;;;5.22;53.40
75359;BME280;64046;51.978;5.934;2022-12-18T12:28:53;102362.81;;;5.42;52.79
75359;BME280;64046;51.978;5.934;2022-12-18T12:31:36;102360.22;;;5.42;52.72
75359;BME280;64046;51.978;5.934;2022-12-18T12:34:15;102367.16;;;5.43;52.88
75359;BME280;64046;51.978;5.934;2022-12-18T12:36:55;102370.59;;;5.45;52.71
75359;BME280;64046;51.978;5.934;2022-12-18T12:39:30;102353.28;;;5.41;52.85
75359;BME280;64046;51.978;5.934;2022-12-18T12:42:01;102350.66;;;5.43;52.96
75359;BME280;64046;51.978;5.934;2022-12-18T12:44:48;102347.22;;;5.51;52.73
75359;BME280;64046;51.978;5.934;2022-12-18T12:47:24;102340.31;;;5.50;52.80
75359;BME280;64046;51.978;5.934;2022-12-18T12:49:55;102336.81;;;5.41;52.61
75359;BME280;64046;51.978;5.934;2022-12-18T12:52:30;102343.75;;;5.51;52.30
75359;BME280;64046;51.978;5.934;2022-12-18T12:55:00;102326.41;;;5.44;52.55
75359;BME280;64046;51.978;5.934;2022-12-18T12:57:34;102329.91;;;5.53;52.28
75359;BME280;64046;51.978;5.934;2022-12-18T13:00:09;102322.97;;;5.52;52.10
75359;BME280;64046;51.978;5.934;2022-12-18T13:02:46;102313.44;;;5.54;52.29
75359;BME280;64046;51.978;5.934;2022-12-18T13:05:21;102316.91;;;5.53;52.30
75359;BME280;64046;51.978;5.934;2022-12-18T13:07:56;102309.97;;;5.52;51.80
75359;BME280;64046;51.978;5.934;2022-12-18T13:10:33;102308.22;;;5.50;51.81
75359;BME280;64046;51.978;5.934;2022-12-18T13:13:04;102310.81;;;5.42;51.86
75359;BME280;64046;51.978;5.934;2022-12-18T13:15:38;102310.84;;;5.54;51.74
75359;BME280;64046;51.978;5.934;2022-12-18T13:18:14;102310.84;;;5.61;51.73
75359;BME280;64046;51.978;5.934;2022-12-18T13:20:46;102303.03;;;5.54;51.85
75359;BME280;64046;51.978;5.934;2022-12-18T13:23:29;102294.38;;;5.66;51.51
75359;BME280;64046;51.978;5.934;2022-12-18T13:26:30;102290.03;;;5.75;51.27
75359;BME280;64046;51.978;5.934;2022-12-18T13:29:02;102286.56;;;5.55;51.74
75359;BME280;64046;51.978;5.934;2022-12-18T13:32:00;102290.91;;;5.77;51.13
75359;BME280;64046;51.978;5.934;2022-12-18T13:34:30;102302.16;;;5.52;51.52